sensor_id;sensor_type;location;lat;lon;timestamp;temperature;humidity
57843;DHT22;43673;51.058;3.734;2023-07-30T00:01:56;16.80;99.90
57843;DHT22;43673;51.058;3.734;2023-07-30T00:04:22;16.70;99.90
57843;DHT22;43673;51.058;3.734;2023-07-30T00:06:48;16.70;99.90
57843;DHT22;43673;51.058;3.734;2023-07-30T00:09:14;16.70;99.90
57843;DHT22;43673;51.058;3.734;2023-07-30T00:11:40;16.70;99.90
57843;DHT22;43673;51.058;3.734;2023-07-30T00:14:06;16.60;99.90
57843;DHT22;43673;51.058;3.734;2023-07-30T00:16:31;16.60;99.90
57843;DHT22;43673;51.058;3.734;2023-07-30T00:18:57;16.70;99.90
57843;DHT22;43673;51.058;3.734;2023-07-30T00:21:36;16.60;99.90
57843;DHT22;43673;51.058;3.734;2023-07-30T00:24:05;16.60;99.90
57843;DHT22;43673;51.058;3.734;2023-07-30T00:26:31;16.80;99.90
57843;DHT22;43673;51.058;3.734;2023-07-30T00:28:57;16.60;99.90
57843;DHT22;43673;51.058;3.734;2023-07-30T00:31:22;16.50;99.90
57843;DHT22;43673;51.058;3.734;2023-07-30T00:33:48;16.50;99.90
57843;DHT22;43673;51.058;3.734;2023-07-30T00:36:16;16.50;99.90
57843;DHT22;43673;51.058;3.734;2023-07-30T00:38:42;16.50;99.90
57843;DHT22;43673;51.058;3.734;2023-07-30T00:41:08;16.50;99.90
57843;DHT22;43673;51.058;3.734;2023-07-30T00:43:33;16.50;99.90
57843;DHT22;43673;51.058;3.734;2023-07-30T00:45:59;16.50;99.90
57843;DHT22;43673;51.058;3.734;2023-07-30T00:51:00;16.50;99.90
57843;DHT22;43673;51.058;3.734;2023-07-30T00:53:28;16.50;99.90
57843;DHT22;43673;51.058;3.734;2023-07-30T00:55:54;16.50;99.90
57843;DHT22;43673;51.058;3.734;2023-07-30T00:58:23;16.50;99.90
57843;DHT22;43673;51.058;3.734;2023-07-30T01:00:51;16.50;99.90
57843;DHT22;43673;51.058;3.734;2023-07-30T01:03:18;16.40;99.90
57843;DHT22;43673;51.058;3.734;2023-07-30T01:05:44;16.40;99.90
57843;DHT22;43673;51.058;3.734;2023-07-30T01:08:13;16.40;99.90
57843;DHT22;43673;51.058;3.734;2023-07-30T01:10:40;16.40;99.90
57843;DHT22;43673;51.058;3.734;2023-07-30T01:13:08;16.40;99.90
57843;DHT22;43673;51.058;3.734;2023-07-30T01:15:35;16.40;99.90
57843;DHT22;43673;51.058;3.734;2023-07-30T01:18:04;16.40;99.90
57843;DHT22;43673;51.058;3.734;2023-07-30T01:20:31;16.30;99.90
57843;DHT22;43673;51.058;3.734;2023-07-30T01:23:00;16.30;99.90
57843;DHT22;43673;51.058;3.734;2023-07-30T01:25:36;16.40;99.90
57843;DHT22;43673;51.058;3.734;2023-07-30T01:28:04;16.30;99.90
57843;DHT22;43673;51.058;3.734;2023-07-30T01:30:43;16.30;99.90
57843;DHT22;43673;51.058;3.734;2023-07-30T01:33:16;16.20;99.90
57843;DHT22;43673;51.058;3.734;2023-07-30T01:35:42;16.30;99.90
57843;DHT22;43673;51.058;3.734;2023-07-30T01:38:12;16.30;99.90
57843;DHT22;43673;51.058;3.734;2023-07-30T01:40:38;16.30;99.90
57843;DHT22;43673;51.058;3.734;2023-07-30T01:43:07;16.30;99.90
57843;DHT22;43673;51.058;3.734;2023-07-30T01:45:43;16.30;99.90
57843;DHT22;43673;51.058;3.734;2023-07-30T01:48:09;16.30;99.90
57843;DHT22;43673;51.058;3.734;2023-07-30T01:50:34;16.20;99.90
57843;DHT22;43673;51.058;3.734;2023-07-30T01:53:00;16.20;99.90
57843;DHT22;43673;51.058;3.734;2023-07-30T01:55:26;16.20;99.90
57843;DHT22;43673;51.058;3.734;2023-07-30T01:57:53;16.10;99.90
57843;DHT22;43673;51.058;3.734;2023-07-30T02:02:54;16.10;99.90
57843;DHT22;43673;51.058;3.734;2023-07-30T02:05:20;16.10;99.90
57843;DHT22;43673;51.058;3.734;2023-07-30T02:07:46;16.10;99.90
57843;DHT22;43673;51.058;3.734;2023-07-30T02:10:12;16.10;99.90
57843;DHT22;43673;51.058;3.734;2023-07-30T02:12:38;16.00;99.90
57843;DHT22;43673;51.058;3.734;2023-07-30T02:15:04;16.10;99.90
57843;DHT22;43673;51.058;3.734;2023-07-30T02:17:30;16.10;99.90
57843;DHT22;43673;51.058;3.734;2023-07-30T02:19:56;16.10;99.90
57843;DHT22;43673;51.058;3.734;2023-07-30T02:22:46;16.10;99.90
57843;DHT22;43673;51.058;3.734;2023-07-30T02:25:12;16.10;99.90
57843;DHT22;43673;51.058;3.734;2023-07-30T02:27:37;16.20;99.90
57843;DHT22;43673;51.058;3.734;2023-07-30T02:30:04;16.20;99.90
57843;DHT22;43673;51.058;3.734;2023-07-30T02:32:30;16.30;99.90
57843;DHT22;43673;51.058;3.734;2023-07-30T02:34:56;16.30;99.90
57843;DHT22;43673;51.058;3.734;2023-07-30T02:37:22;16.30;99.90
57843;DHT22;43673;51.058;3.734;2023-07-30T02:39:48;16.30;99.90
57843;DHT22;43673;51.058;3.734;2023-07-30T02:42:13;16.30;99.90
57843;DHT22;43673;51.058;3.734;2023-07-30T02:44:39;16.40;99.90
57843;DHT22;43673;51.058;3.734;2023-07-30T02:47:05;16.40;99.90
57843;DHT22;43673;51.058;3.734;2023-07-30T02:49:36;16.40;99.90
57843;DHT22;43673;51.058;3.734;2023-07-30T02:57:13;16.40;99.90
57843;DHT22;43673;51.058;3.734;2023-07-30T02:59:39;16.30;99.90
57843;DHT22;43673;51.058;3.734;2023-07-30T03:02:06;16.20;99.90
57843;DHT22;43673;51.058;3.734;2023-07-30T03:04:32;16.20;99.90
57843;DHT22;43673;51.058;3.734;2023-07-30T03:06:58;16.20;99.90
57843;DHT22;43673;51.058;3.734;2023-07-30T03:09:24;16.20;99.90
57843;DHT22;43673;51.058;3.734;2023-07-30T03:11:50;16.20;99.90
57843;DHT22;43673;51.058;3.734;2023-07-30T03:14:16;16.20;99.90
57843;DHT22;43673;51.058;3.734;2023-07-30T03:19:21;16.20;99.90
57843;DHT22;43673;51.058;3.734;2023-07-30T03:21:53;16.20;99.90
57843;DHT22;43673;51.058;3.734;2023-07-30T03:24:18;16.10;99.90
57843;DHT22;43673;51.058;3.734;2023-07-30T03:26:44;15.90;99.90
57843;DHT22;43673;51.058;3.734;2023-07-30T03:29:10;16.10;99.90
57843;DHT22;43673;51.058;3.734;2023-07-30T03:31:36;16.10;99.90
57843;DHT22;43673;51.058;3.734;2023-07-30T03:34:02;16.10;99.90
57843;DHT22;43673;51.058;3.734;2023-07-30T03:36:30;16.10;99.90
57843;DHT22;43673;51.058;3.734;2023-07-30T03:38:56;16.10;99.90
57843;DHT22;43673;51.058;3.734;2023-07-30T03:41:26;16.20;99.90
57843;DHT22;43673;51.058;3.734;2023-07-30T03:43:52;16.20;99.90
57843;DHT22;43673;51.058;3.734;2023-07-30T03:46:18;16.20;99.90
57843;DHT22;43673;51.058;3.734;2023-07-30T03:48:44;16.20;99.90
57843;DHT22;43673;51.058;3.734;2023-07-30T03:51:10;16.20;99.90
57843;DHT22;43673;51.058;3.734;2023-07-30T03:53:35;16.20;99.90
57843;DHT22;43673;51.058;3.734;2023-07-30T03:56:12;16.30;99.90
57843;DHT22;43673;51.058;3.734;2023-07-30T03:58:38;16.20;99.90
57843;DHT22;43673;51.058;3.734;2023-07-30T04:01:04;16.40;99.90
57843;DHT22;43673;51.058;3.734;2023-07-30T04:03:32;16.40;99.90
57843;DHT22;43673;51.058;3.734;2023-07-30T04:05:58;16.40;99.90
57843;DHT22;43673;51.058;3.734;2023-07-30T04:08:24;16.40;99.90
57843;DHT22;43673;51.058;3.734;2023-07-30T04:13:25;16.40;99.90
57843;DHT22;43673;51.058;3.734;2023-07-30T04:15:51;16.40;99.90
57843;DHT22;43673;51.058;3.734;2023-07-30T04:18:17;16.40;99.90
57843;DHT22;43673;51.058;3.734;2023-07-30T04:20:43;16.50;99.90
57843;DHT22;43673;51.058;3.734;2023-07-30T04:23:09;16.50;99.90
57843;DHT22;43673;51.058;3.734;2023-07-30T04:25:34;16.50;99.90
57843;DHT22;43673;51.058;3.734;2023-07-30T04:28:00;16.50;99.90
57843;DHT22;43673;51.058;3.734;2023-07-30T04:30:26;16.50;99.90
57843;DHT22;43673;51.058;3.734;2023-07-30T04:32:52;16.50;99.90
57843;DHT22;43673;51.058;3.734;2023-07-30T04:35:18;16.30;99.90
57843;DHT22;43673;51.058;3.734;2023-07-30T04:37:44;16.60;99.90
57843;DHT22;43673;51.058;3.734;2023-07-30T04:40:10;16.60;99.90
57843;DHT22;43673;51.058;3.734;2023-07-30T04:42:36;16.70;99.90
57843;DHT22;43673;51.058;3.734;2023-07-30T04:45:02;16.70;99.90
57843;DHT22;43673;51.058;3.734;2023-07-30T04:47:28;16.70;99.90
57843;DHT22;43673;51.058;3.734;2023-07-30T04:49:53;16.70;99.90
57843;DHT22;43673;51.058;3.734;2023-07-30T04:52:22;16.80;99.90
57843;DHT22;43673;51.058;3.734;2023-07-30T04:54:50;16.80;99.90
57843;DHT22;43673;51.058;3.734;2023-07-30T04:57:15;16.90;99.90
57843;DHT22;43673;51.058;3.734;2023-07-30T04:59:42;16.90;99.90
57843;DHT22;43673;51.058;3.734;2023-07-30T05:02:08;17.00;99.90
57843;DHT22;43673;51.058;3.734;2023-07-30T05:04:34;16.90;99.90
57843;DHT22;43673;51.058;3.734;2023-07-30T05:07:00;16.90;99.90
57843;DHT22;43673;51.058;3.734;2023-07-30T05:09:25;17.00;99.90
57843;DHT22;43673;51.058;3.734;2023-07-30T05:11:51;17.10;99.90
57843;DHT22;43673;51.058;3.734;2023-07-30T05:14:17;17.10;99.90
57843;DHT22;43673;51.058;3.734;2023-07-30T05:16:43;17.20;99.90
57843;DHT22;43673;51.058;3.734;2023-07-30T05:19:09;17.30;99.90
57843;DHT22;43673;51.058;3.734;2023-07-30T05:21:34;17.40;99.90
57843;DHT22;43673;51.058;3.734;2023-07-30T05:24:00;17.40;99.90
57843;DHT22;43673;51.058;3.734;2023-07-30T05:26:29;17.50;99.90
57843;DHT22;43673;51.058;3.734;2023-07-30T05:28:55;17.50;99.90
57843;DHT22;43673;51.058;3.734;2023-07-30T05:31:24;17.50;99.90
57843;DHT22;43673;51.058;3.734;2023-07-30T05:33:49;17.60;99.90
57843;DHT22;43673;51.058;3.734;2023-07-30T05:36:15;17.70;99.90
57843;DHT22;43673;51.058;3.734;2023-07-30T05:38:41;17.70;99.90
57843;DHT22;43673;51.058;3.734;2023-07-30T05:41:10;17.60;99.90
57843;DHT22;43673;51.058;3.734;2023-07-30T05:43:43;17.70;99.90
57843;DHT22;43673;51.058;3.734;2023-07-30T05:46:09;17.70;99.90
57843;DHT22;43673;51.058;3.734;2023-07-30T05:48:35;17.70;99.90
57843;DHT22;43673;51.058;3.734;2023-07-30T05:51:01;17.70;99.90
57843;DHT22;43673;51.058;3.734;2023-07-30T05:53:30;17.60;99.90
57843;DHT22;43673;51.058;3.734;2023-07-30T05:55:56;17.80;99.90
57843;DHT22;43673;51.058;3.734;2023-07-30T05:58:27;18.00;99.90
57843;DHT22;43673;51.058;3.734;2023-07-30T06:00:52;18.10;99.90
57843;DHT22;43673;51.058;3.734;2023-07-30T06:03:19;18.30;99.90
57843;DHT22;43673;51.058;3.734;2023-07-30T06:05:45;18.50;99.90
57843;DHT22;43673;51.058;3.734;2023-07-30T06:08:11;18.60;99.90
57843;DHT22;43673;51.058;3.734;2023-07-30T06:13:21;18.90;99.90
57843;DHT22;43673;51.058;3.734;2023-07-30T06:15:49;19.10;99.90
57843;DHT22;43673;51.058;3.734;2023-07-30T06:18:22;19.40;99.90
57843;DHT22;43673;51.058;3.734;2023-07-30T06:20:51;20.20;99.90
57843;DHT22;43673;51.058;3.734;2023-07-30T06:23:30;20.50;99.90
57843;DHT22;43673;51.058;3.734;2023-07-30T06:26:02;20.40;99.90
57843;DHT22;43673;51.058;3.734;2023-07-30T06:28:28;20.30;99.90
57843;DHT22;43673;51.058;3.734;2023-07-30T06:30:53;20.30;99.90
57843;DHT22;43673;51.058;3.734;2023-07-30T06:33:19;20.40;99.90
57843;DHT22;43673;51.058;3.734;2023-07-30T06:35:45;20.50;99.90
57843;DHT22;43673;51.058;3.734;2023-07-30T06:38:16;20.80;99.90
57843;DHT22;43673;51.058;3.734;2023-07-30T06:43:17;21.90;99.90
57843;DHT22;43673;51.058;3.734;2023-07-30T06:45:43;21.70;99.90
57843;DHT22;43673;51.058;3.734;2023-07-30T06:48:15;21.40;99.90
57843;DHT22;43673;51.058;3.734;2023-07-30T06:50:43;21.20;99.90
57843;DHT22;43673;51.058;3.734;2023-07-30T06:53:12;20.90;99.90
57843;DHT22;43673;51.058;3.734;2023-07-30T06:55:39;20.80;99.90
57843;DHT22;43673;51.058;3.734;2023-07-30T06:58:04;20.60;99.90
57843;DHT22;43673;51.058;3.734;2023-07-30T07:00:33;20.60;99.90
57843;DHT22;43673;51.058;3.734;2023-07-30T07:03:03;20.30;99.90
57843;DHT22;43673;51.058;3.734;2023-07-30T07:05:37;20.20;99.90
57843;DHT22;43673;51.058;3.734;2023-07-30T07:08:11;20.10;99.90
57843;DHT22;43673;51.058;3.734;2023-07-30T07:10:43;20.00;99.90
57843;DHT22;43673;51.058;3.734;2023-07-30T07:13:11;20.10;99.90
57843;DHT22;43673;51.058;3.734;2023-07-30T07:20:48;20.40;99.90
57843;DHT22;43673;51.058;3.734;2023-07-30T07:23:27;20.50;99.90
57843;DHT22;43673;51.058;3.734;2023-07-30T07:25:57;20.70;99.90
57843;DHT22;43673;51.058;3.734;2023-07-30T07:28:26;20.40;99.90
57843;DHT22;43673;51.058;3.734;2023-07-30T07:30:52;19.90;99.90
57843;DHT22;43673;51.058;3.734;2023-07-30T07:33:18;19.90;99.90
57843;DHT22;43673;51.058;3.734;2023-07-30T07:36:06;20.10;99.90
57843;DHT22;43673;51.058;3.734;2023-07-30T07:38:33;20.20;99.90
57843;DHT22;43673;51.058;3.734;2023-07-30T07:41:00;20.80;99.90
57843;DHT22;43673;51.058;3.734;2023-07-30T07:43:35;21.30;99.90
57843;DHT22;43673;51.058;3.734;2023-07-30T07:46:03;21.60;99.90
57843;DHT22;43673;51.058;3.734;2023-07-30T07:48:28;22.00;99.90
57843;DHT22;43673;51.058;3.734;2023-07-30T07:50:55;21.50;99.90
57843;DHT22;43673;51.058;3.734;2023-07-30T07:53:21;21.60;99.90
57843;DHT22;43673;51.058;3.734;2023-07-30T07:55:47;21.40;99.90
57843;DHT22;43673;51.058;3.734;2023-07-30T07:58:13;21.30;99.90
57843;DHT22;43673;51.058;3.734;2023-07-30T08:00:38;21.10;99.90
57843;DHT22;43673;51.058;3.734;2023-07-30T08:03:04;21.00;99.90
57843;DHT22;43673;51.058;3.734;2023-07-30T08:05:32;20.80;99.90
57843;DHT22;43673;51.058;3.734;2023-07-30T08:07:58;20.70;99.90
57843;DHT22;43673;51.058;3.734;2023-07-30T08:10:24;21.00;99.90
57843;DHT22;43673;51.058;3.734;2023-07-30T08:12:50;21.20;99.90
57843;DHT22;43673;51.058;3.734;2023-07-30T08:15:16;21.20;99.90
57843;DHT22;43673;51.058;3.734;2023-07-30T08:17:42;21.10;99.90
57843;DHT22;43673;51.058;3.734;2023-07-30T08:20:08;21.10;99.90
57843;DHT22;43673;51.058;3.734;2023-07-30T08:22:34;21.40;99.90
57843;DHT22;43673;51.058;3.734;2023-07-30T08:24:59;21.60;99.90
57843;DHT22;43673;51.058;3.734;2023-07-30T08:27:25;21.50;99.90
57843;DHT22;43673;51.058;3.734;2023-07-30T08:29:51;21.50;99.90
57843;DHT22;43673;51.058;3.734;2023-07-30T08:32:16;21.50;99.90
57843;DHT22;43673;51.058;3.734;2023-07-30T08:34:42;21.40;99.90
57843;DHT22;43673;51.058;3.734;2023-07-30T08:37:10;22.70;99.90
57843;DHT22;43673;51.058;3.734;2023-07-30T08:39:36;24.40;99.90
57843;DHT22;43673;51.058;3.734;2023-07-30T08:42:02;25.80;99.90
57843;DHT22;43673;51.058;3.734;2023-07-30T08:44:29;27.10;99.90
57843;DHT22;43673;51.058;3.734;2023-07-30T08:46:57;27.60;99.90
57843;DHT22;43673;51.058;3.734;2023-07-30T08:49:25;27.00;99.90
57843;DHT22;43673;51.058;3.734;2023-07-30T08:51:54;26.90;99.90
57843;DHT22;43673;51.058;3.734;2023-07-30T08:54:20;27.20;99.90
57843;DHT22;43673;51.058;3.734;2023-07-30T08:56:49;28.70;99.90
57843;DHT22;43673;51.058;3.734;2023-07-30T08:59:18;29.80;98.00
57843;DHT22;43673;51.058;3.734;2023-07-30T09:01:47;29.90;96.80
57843;DHT22;43673;51.058;3.734;2023-07-30T09:04:15;29.80;95.00
57843;DHT22;43673;51.058;3.734;2023-07-30T09:06:51;29.80;94.20
57843;DHT22;43673;51.058;3.734;2023-07-30T09:09:18;30.40;93.80
57843;DHT22;43673;51.058;3.734;2023-07-30T09:11:52;30.60;92.70
57843;DHT22;43673;51.058;3.734;2023-07-30T09:14:20;29.70;92.70
57843;DHT22;43673;51.058;3.734;2023-07-30T09:16:56;29.70;93.20
57843;DHT22;43673;51.058;3.734;2023-07-30T09:19:23;29.00;93.10
57843;DHT22;43673;51.058;3.734;2023-07-30T09:21:49;29.10;93.00
57843;DHT22;43673;51.058;3.734;2023-07-30T09:24:21;28.80;92.50
57843;DHT22;43673;51.058;3.734;2023-07-30T09:26:47;28.70;92.70
57843;DHT22;43673;51.058;3.734;2023-07-30T09:29:13;29.70;92.60
57843;DHT22;43673;51.058;3.734;2023-07-30T09:31:47;30.40;91.40
57843;DHT22;43673;51.058;3.734;2023-07-30T09:34:37;30.60;91.20
57843;DHT22;43673;51.058;3.734;2023-07-30T09:37:10;30.70;90.10
57843;DHT22;43673;51.058;3.734;2023-07-30T09:39:37;29.90;90.50
57843;DHT22;43673;51.058;3.734;2023-07-30T09:42:04;29.90;90.30
57843;DHT22;43673;51.058;3.734;2023-07-30T09:44:32;31.00;87.40
57843;DHT22;43673;51.058;3.734;2023-07-30T09:47:01;30.20;88.00
57843;DHT22;43673;51.058;3.734;2023-07-30T09:49:31;29.20;89.30
57843;DHT22;43673;51.058;3.734;2023-07-30T09:52:00;28.00;91.70
57843;DHT22;43673;51.058;3.734;2023-07-30T09:54:27;27.50;93.00
57843;DHT22;43673;51.058;3.734;2023-07-30T09:56:53;27.20;93.40
57843;DHT22;43673;51.058;3.734;2023-07-30T09:59:18;28.20;91.50
57843;DHT22;43673;51.058;3.734;2023-07-30T10:01:46;29.30;91.20
57843;DHT22;43673;51.058;3.734;2023-07-30T10:04:15;29.40;90.00
57843;DHT22;43673;51.058;3.734;2023-07-30T10:06:54;27.90;91.30
57843;DHT22;43673;51.058;3.734;2023-07-30T10:09:21;26.90;93.30
57843;DHT22;43673;51.058;3.734;2023-07-30T10:11:50;25.70;95.40
57843;DHT22;43673;51.058;3.734;2023-07-30T10:14:19;25.90;96.10
57843;DHT22;43673;51.058;3.734;2023-07-30T10:16:54;25.90;96.10
57843;DHT22;43673;51.058;3.734;2023-07-30T10:19:26;25.30;96.60
57843;DHT22;43673;51.058;3.734;2023-07-30T10:25:03;24.80;97.60
57843;DHT22;43673;51.058;3.734;2023-07-30T10:27:38;25.30;97.20
57843;DHT22;43673;51.058;3.734;2023-07-30T10:30:20;27.20;95.30
57843;DHT22;43673;51.058;3.734;2023-07-30T10:35:39;26.70;94.40
57843;DHT22;43673;51.058;3.734;2023-07-30T10:38:28;26.10;94.40
57843;DHT22;43673;51.058;3.734;2023-07-30T10:43:43;26.50;93.90
57843;DHT22;43673;51.058;3.734;2023-07-30T10:46:11;26.00;93.90
57843;DHT22;43673;51.058;3.734;2023-07-30T10:48:41;25.70;95.10
57843;DHT22;43673;51.058;3.734;2023-07-30T10:51:13;26.10;95.30
57843;DHT22;43673;51.058;3.734;2023-07-30T10:53:42;26.30;95.20
57843;DHT22;43673;51.058;3.734;2023-07-30T10:56:09;27.00;94.40
57843;DHT22;43673;51.058;3.734;2023-07-30T10:58:37;27.50;92.60
57843;DHT22;43673;51.058;3.734;2023-07-30T11:01:07;26.80;93.10
57843;DHT22;43673;51.058;3.734;2023-07-30T11:03:35;27.30;93.20
57843;DHT22;43673;51.058;3.734;2023-07-30T11:06:02;28.30;91.70
57843;DHT22;43673;51.058;3.734;2023-07-30T11:08:39;28.20;90.30
57843;DHT22;43673;51.058;3.734;2023-07-30T11:11:07;28.10;90.60
57843;DHT22;43673;51.058;3.734;2023-07-30T11:13:37;27.90;90.40
57843;DHT22;43673;51.058;3.734;2023-07-30T11:16:08;28.00;90.40
57843;DHT22;43673;51.058;3.734;2023-07-30T11:18:35;27.80;90.70
57843;DHT22;43673;51.058;3.734;2023-07-30T11:21:09;27.40;91.20
57843;DHT22;43673;51.058;3.734;2023-07-30T11:23:37;27.50;91.50
57843;DHT22;43673;51.058;3.734;2023-07-30T11:26:04;27.90;91.00
57843;DHT22;43673;51.058;3.734;2023-07-30T11:28:34;27.90;90.70
57843;DHT22;43673;51.058;3.734;2023-07-30T11:31:10;28.30;90.40
57843;DHT22;43673;51.058;3.734;2023-07-30T11:33:40;27.40;90.10
57843;DHT22;43673;51.058;3.734;2023-07-30T11:36:08;26.90;91.10
57843;DHT22;43673;51.058;3.734;2023-07-30T11:38:35;27.00;91.10
57843;DHT22;43673;51.058;3.734;2023-07-30T11:41:01;26.50;91.90
57843;DHT22;43673;51.058;3.734;2023-07-30T11:43:27;26.10;92.80
57843;DHT22;43673;51.058;3.734;2023-07-30T11:46:13;25.80;93.10
57843;DHT22;43673;51.058;3.734;2023-07-30T11:48:46;25.30;93.00
57843;DHT22;43673;51.058;3.734;2023-07-30T11:51:27;24.80;93.40
57843;DHT22;43673;51.058;3.734;2023-07-30T11:53:55;24.60;93.10
57843;DHT22;43673;51.058;3.734;2023-07-30T11:56:22;24.60;93.30
57843;DHT22;43673;51.058;3.734;2023-07-30T11:58:49;24.60;93.50
57843;DHT22;43673;51.058;3.734;2023-07-30T12:01:16;24.50;93.70
57843;DHT22;43673;51.058;3.734;2023-07-30T12:03:42;24.70;94.30
57843;DHT22;43673;51.058;3.734;2023-07-30T12:06:10;24.90;92.50
57843;DHT22;43673;51.058;3.734;2023-07-30T12:08:36;24.60;92.30
57843;DHT22;43673;51.058;3.734;2023-07-30T12:11:04;24.40;92.90
57843;DHT22;43673;51.058;3.734;2023-07-30T12:13:30;24.50;93.00
57843;DHT22;43673;51.058;3.734;2023-07-30T12:15:56;24.60;93.60
57843;DHT22;43673;51.058;3.734;2023-07-30T12:18:24;24.70;92.90
57843;DHT22;43673;51.058;3.734;2023-07-30T12:20:51;24.70;92.60
57843;DHT22;43673;51.058;3.734;2023-07-30T12:23:17;24.60;92.40
57843;DHT22;43673;51.058;3.734;2023-07-30T12:25:43;24.60;92.40
57843;DHT22;43673;51.058;3.734;2023-07-30T12:28:10;24.60;93.00
57843;DHT22;43673;51.058;3.734;2023-07-30T12:30:35;24.60;92.70
57843;DHT22;43673;51.058;3.734;2023-07-30T12:33:03;24.50;92.70
57843;DHT22;43673;51.058;3.734;2023-07-30T12:35:29;24.60;92.90
57843;DHT22;43673;51.058;3.734;2023-07-30T12:37:55;24.90;93.10
57843;DHT22;43673;51.058;3.734;2023-07-30T12:40:21;24.90;93.10
57843;DHT22;43673;51.058;3.734;2023-07-30T12:42:46;24.90;93.40
57843;DHT22;43673;51.058;3.734;2023-07-30T12:45:13;24.90;93.10
57843;DHT22;43673;51.058;3.734;2023-07-30T12:47:40;25.00;92.80
57843;DHT22;43673;51.058;3.734;2023-07-30T12:50:06;24.80;92.40
57843;DHT22;43673;51.058;3.734;2023-07-30T12:52:33;24.70;92.20
57843;DHT22;43673;51.058;3.734;2023-07-30T12:55:00;24.50;92.70
57843;DHT22;43673;51.058;3.734;2023-07-30T12:57:25;24.80;92.70
57843;DHT22;43673;51.058;3.734;2023-07-30T12:59:51;24.90;92.80
57843;DHT22;43673;51.058;3.734;2023-07-30T13:02:17;24.90;92.00
57843;DHT22;43673;51.058;3.734;2023-07-30T13:04:43;24.90;91.50
57843;DHT22;43673;51.058;3.734;2023-07-30T13:07:09;24.60;91.90
57843;DHT22;43673;51.058;3.734;2023-07-30T13:09:35;24.70;92.60
57843;DHT22;43673;51.058;3.734;2023-07-30T13:12:01;24.70;92.50
57843;DHT22;43673;51.058;3.734;2023-07-30T13:14:27;24.60;92.70
57843;DHT22;43673;51.058;3.734;2023-07-30T13:16:52;24.60;92.90
57843;DHT22;43673;51.058;3.734;2023-07-30T13:19:18;24.50;92.50
57843;DHT22;43673;51.058;3.734;2023-07-30T13:21:44;24.30;93.10
57843;DHT22;43673;51.058;3.734;2023-07-30T13:24:09;24.20;93.20
57843;DHT22;43673;51.058;3.734;2023-07-30T13:26:35;24.20;94.00
57843;DHT22;43673;51.058;3.734;2023-07-30T13:29:01;24.20;94.40
57843;DHT22;43673;51.058;3.734;2023-07-30T13:31:27;24.40;94.60
57843;DHT22;43673;51.058;3.734;2023-07-30T13:33:53;24.40;95.00
57843;DHT22;43673;51.058;3.734;2023-07-30T13:36:18;24.60;95.30
57843;DHT22;43673;51.058;3.734;2023-07-30T13:38:44;24.80;95.90
57843;DHT22;43673;51.058;3.734;2023-07-30T13:41:10;24.90;95.60
57843;DHT22;43673;51.058;3.734;2023-07-30T13:43:36;24.70;95.80
57843;DHT22;43673;51.058;3.734;2023-07-30T13:46:01;24.60;96.20
57843;DHT22;43673;51.058;3.734;2023-07-30T13:48:27;24.60;96.80
57843;DHT22;43673;51.058;3.734;2023-07-30T13:50:53;24.70;97.00
57843;DHT22;43673;51.058;3.734;2023-07-30T13:53:19;24.70;97.10
57843;DHT22;43673;51.058;3.734;2023-07-30T13:55:45;24.60;97.20
57843;DHT22;43673;51.058;3.734;2023-07-30T13:58:11;24.40;97.70
57843;DHT22;43673;51.058;3.734;2023-07-30T14:00:39;24.20;98.10
57843;DHT22;43673;51.058;3.734;2023-07-30T14:03:04;24.20;98.10
57843;DHT22;43673;51.058;3.734;2023-07-30T14:05:30;24.10;98.30
57843;DHT22;43673;51.058;3.734;2023-07-30T14:07:56;24.10;98.40
57843;DHT22;43673;51.058;3.734;2023-07-30T14:10:26;24.30;98.60
57843;DHT22;43673;51.058;3.734;2023-07-30T14:12:52;24.40;98.20
57843;DHT22;43673;51.058;3.734;2023-07-30T14:15:18;24.20;98.30
57843;DHT22;43673;51.058;3.734;2023-07-30T14:17:44;23.90;98.70
57843;DHT22;43673;51.058;3.734;2023-07-30T14:20:10;23.80;99.10
57843;DHT22;43673;51.058;3.734;2023-07-30T14:22:36;23.70;99.40
57843;DHT22;43673;51.058;3.734;2023-07-30T14:25:05;23.50;99.40
57843;DHT22;43673;51.058;3.734;2023-07-30T14:27:31;23.20;99.90
57843;DHT22;43673;51.058;3.734;2023-07-30T14:29:56;23.00;99.90
57843;DHT22;43673;51.058;3.734;2023-07-30T14:32:23;23.00;99.90
57843;DHT22;43673;51.058;3.734;2023-07-30T14:34:49;23.00;99.90
57843;DHT22;43673;51.058;3.734;2023-07-30T14:37:15;22.70;99.90
57843;DHT22;43673;51.058;3.734;2023-07-30T14:39:41;22.80;99.90
57843;DHT22;43673;51.058;3.734;2023-07-30T14:42:07;22.70;99.90
57843;DHT22;43673;51.058;3.734;2023-07-30T14:44:34;22.80;99.90
57843;DHT22;43673;51.058;3.734;2023-07-30T14:47:00;22.70;99.90
57843;DHT22;43673;51.058;3.734;2023-07-30T14:49:27;22.40;99.90
57843;DHT22;43673;51.058;3.734;2023-07-30T14:51:52;22.10;99.90
57843;DHT22;43673;51.058;3.734;2023-07-30T14:54:18;21.80;99.90
57843;DHT22;43673;51.058;3.734;2023-07-30T14:56:44;21.60;99.90
57843;DHT22;43673;51.058;3.734;2023-07-30T14:59:10;21.50;99.90
57843;DHT22;43673;51.058;3.734;2023-07-30T15:01:36;21.30;99.90
57843;DHT22;43673;51.058;3.734;2023-07-30T15:04:02;21.10;99.90
57843;DHT22;43673;51.058;3.734;2023-07-30T15:06:30;21.10;99.90
57843;DHT22;43673;51.058;3.734;2023-07-30T15:08:56;21.00;99.90
57843;DHT22;43673;51.058;3.734;2023-07-30T15:11:22;20.90;99.90
57843;DHT22;43673;51.058;3.734;2023-07-30T15:13:48;20.90;99.90
57843;DHT22;43673;51.058;3.734;2023-07-30T15:16:14;20.90;99.90
57843;DHT22;43673;51.058;3.734;2023-07-30T15:18:43;20.90;99.90
57843;DHT22;43673;51.058;3.734;2023-07-30T15:21:10;21.00;99.90
57843;DHT22;43673;51.058;3.734;2023-07-30T15:23:36;21.10;99.90
57843;DHT22;43673;51.058;3.734;2023-07-30T15:26:02;21.10;99.90
57843;DHT22;43673;51.058;3.734;2023-07-30T15:28:27;21.10;99.90
57843;DHT22;43673;51.058;3.734;2023-07-30T15:30:53;21.00;99.90
57843;DHT22;43673;51.058;3.734;2023-07-30T15:33:19;20.90;99.90
57843;DHT22;43673;51.058;3.734;2023-07-30T15:35:45;20.90;99.90
57843;DHT22;43673;51.058;3.734;2023-07-30T15:38:10;20.90;99.90
57843;DHT22;43673;51.058;3.734;2023-07-30T15:40:36;20.70;99.90
57843;DHT22;43673;51.058;3.734;2023-07-30T15:43:03;20.70;99.90
57843;DHT22;43673;51.058;3.734;2023-07-30T15:45:29;20.70;99.90
57843;DHT22;43673;51.058;3.734;2023-07-30T15:47:56;20.60;99.90
57843;DHT22;43673;51.058;3.734;2023-07-30T15:50:23;20.40;99.90
57843;DHT22;43673;51.058;3.734;2023-07-30T15:52:57;20.50;99.90
57843;DHT22;43673;51.058;3.734;2023-07-30T15:55:22;20.10;99.90
57843;DHT22;43673;51.058;3.734;2023-07-30T15:57:48;19.90;99.90
57843;DHT22;43673;51.058;3.734;2023-07-30T16:00:14;19.80;99.90
57843;DHT22;43673;51.058;3.734;2023-07-30T16:02:41;19.70;99.90
57843;DHT22;43673;51.058;3.734;2023-07-30T16:05:08;19.60;99.90
57843;DHT22;43673;51.058;3.734;2023-07-30T16:07:34;19.50;99.90